sensor_id;sensor_type;location;lat;lon;timestamp;P1;durP1;ratioP1;P2;durP2;ratioP2
26594;SDS011;14238;49.496;8.154;2023-04-06T00:01:30;5.07;;;4.67;;
26594;SDS011;14238;49.496;8.154;2023-04-06T00:03:55;5.37;;;4.90;;
26594;SDS011;14238;49.496;8.154;2023-04-06T00:06:21;5.77;;;5.27;;
26594;SDS011;14238;49.496;8.154;2023-04-06T00:08:46;5.50;;;5.10;;
26594;SDS011;14238;49.496;8.154;2023-04-06T00:11:12;5.70;;;5.20;;
26594;SDS011;14238;49.496;8.154;2023-04-06T00:13:37;5.13;;;4.73;;
26594;SDS011;14238;49.496;8.154;2023-04-06T00:16:04;5.23;;;4.83;;
26594;SDS011;14238;49.496;8.154;2023-04-06T00:18:31;5.83;;;5.30;;
26594;SDS011;14238;49.496;8.154;2023-04-06T00:20:56;5.33;;;4.93;;
26594;SDS011;14238;49.496;8.154;2023-04-06T00:23:22;5.33;;;4.83;;
26594;SDS011;14238;49.496;8.154;2023-04-06T00:25:48;5.53;;;5.10;;
26594;SDS011;14238;49.496;8.154;2023-04-06T00:28:13;5.70;;;5.20;;
26594;SDS011;14238;49.496;8.154;2023-04-06T00:30:39;5.90;;;5.20;;
26594;SDS011;14238;49.496;8.154;2023-04-06T00:33:05;6.40;;;4.37;;
26594;SDS011;14238;49.496;8.154;2023-04-06T00:35:31;5.00;;;4.60;;
26594;SDS011;14238;49.496;8.154;2023-04-06T00:37:57;5.40;;;5.00;;
26594;SDS011;14238;49.496;8.154;2023-04-06T00:40:22;5.87;;;5.27;;
26594;SDS011;14238;49.496;8.154;2023-04-06T00:42:48;5.37;;;4.97;;
26594;SDS011;14238;49.496;8.154;2023-04-06T00:45:14;4.90;;;4.53;;
26594;SDS011;14238;49.496;8.154;2023-04-06T00:47:39;4.60;;;4.20;;
26594;SDS011;14238;49.496;8.154;2023-04-06T00:50:05;5.23;;;4.57;;
26594;SDS011;14238;49.496;8.154;2023-04-06T00:52:31;5.90;;;5.40;;
26594;SDS011;14238;49.496;8.154;2023-04-06T00:54:58;5.47;;;4.93;;
26594;SDS011;14238;49.496;8.154;2023-04-06T00:57:23;5.00;;;4.40;;
26594;SDS011;14238;49.496;8.154;2023-04-06T00:59:49;5.73;;;5.20;;
26594;SDS011;14238;49.496;8.154;2023-04-06T01:02:14;5.30;;;4.90;;
26594;SDS011;14238;49.496;8.154;2023-04-06T01:04:40;5.30;;;4.90;;
26594;SDS011;14238;49.496;8.154;2023-04-06T01:07:06;5.77;;;4.80;;
26594;SDS011;14238;49.496;8.154;2023-04-06T01:09:31;4.93;;;4.53;;
26594;SDS011;14238;49.496;8.154;2023-04-06T01:11:57;4.93;;;4.43;;
26594;SDS011;14238;49.496;8.154;2023-04-06T01:14:23;6.20;;;4.70;;
26594;SDS011;14238;49.496;8.154;2023-04-06T01:16:50;5.50;;;4.47;;
26594;SDS011;14238;49.496;8.154;2023-04-06T01:19:16;4.87;;;4.47;;
26594;SDS011;14238;49.496;8.154;2023-04-06T01:21:41;5.53;;;4.93;;
26594;SDS011;14238;49.496;8.154;2023-04-06T01:24:07;4.70;;;4.13;;
26594;SDS011;14238;49.496;8.154;2023-04-06T01:26:34;4.87;;;4.47;;
26594;SDS011;14238;49.496;8.154;2023-04-06T01:29:01;5.03;;;4.43;;
26594;SDS011;14238;49.496;8.154;2023-04-06T01:31:28;4.93;;;4.43;;
26594;SDS011;14238;49.496;8.154;2023-04-06T01:33:53;5.60;;;5.10;;
26594;SDS011;14238;49.496;8.154;2023-04-06T01:36:19;4.80;;;4.40;;
26594;SDS011;14238;49.496;8.154;2023-04-06T01:38:45;5.93;;;5.43;;
26594;SDS011;14238;49.496;8.154;2023-04-06T01:41:11;5.70;;;5.20;;
26594;SDS011;14238;49.496;8.154;2023-04-06T01:43:36;5.20;;;4.70;;
26594;SDS011;14238;49.496;8.154;2023-04-06T01:46:02;4.93;;;4.53;;
26594;SDS011;14238;49.496;8.154;2023-04-06T01:48:28;5.83;;;5.20;;
26594;SDS011;14238;49.496;8.154;2023-04-06T01:50:53;5.60;;;5.10;;
26594;SDS011;14238;49.496;8.154;2023-04-06T01:53:19;6.10;;;5.60;;
26594;SDS011;14238;49.496;8.154;2023-04-06T01:55:45;6.13;;;5.63;;
26594;SDS011;14238;49.496;8.154;2023-04-06T01:58:11;5.77;;;5.20;;
26594;SDS011;14238;49.496;8.154;2023-04-06T02:00:36;6.23;;;5.67;;
26594;SDS011;14238;49.496;8.154;2023-04-06T02:03:02;5.97;;;5.37;;
26594;SDS011;14238;49.496;8.154;2023-04-06T02:05:29;8.40;;;5.47;;
26594;SDS011;14238;49.496;8.154;2023-04-06T02:07:55;5.57;;;5.07;;
26594;SDS011;14238;49.496;8.154;2023-04-06T02:10:21;6.30;;;5.80;;
26594;SDS011;14238;49.496;8.154;2023-04-06T02:12:47;6.20;;;5.60;;
26594;SDS011;14238;49.496;8.154;2023-04-06T02:15:13;5.03;;;4.63;;
26594;SDS011;14238;49.496;8.154;2023-04-06T02:17:39;5.67;;;5.27;;
26594;SDS011;14238;49.496;8.154;2023-04-06T02:20:05;6.37;;;5.87;;
26594;SDS011;14238;49.496;8.154;2023-04-06T02:22:31;6.47;;;5.33;;
26594;SDS011;14238;49.496;8.154;2023-04-06T02:24:57;6.70;;;5.33;;
26594;SDS011;14238;49.496;8.154;2023-04-06T02:27:22;5.90;;;5.40;;
26594;SDS011;14238;49.496;8.154;2023-04-06T02:29:48;5.93;;;5.43;;
26594;SDS011;14238;49.496;8.154;2023-04-06T02:32:13;5.80;;;5.20;;
26594;SDS011;14238;49.496;8.154;2023-04-06T02:34:39;6.17;;;5.23;;
26594;SDS011;14238;49.496;8.154;2023-04-06T02:37:05;6.23;;;5.63;;
26594;SDS011;14238;49.496;8.154;2023-04-06T02:39:30;6.53;;;5.90;;
26594;SDS011;14238;49.496;8.154;2023-04-06T02:41:56;6.03;;;5.20;;
26594;SDS011;14238;49.496;8.154;2023-04-06T02:44:22;6.70;;;6.10;;
26594;SDS011;14238;49.496;8.154;2023-04-06T02:46:47;6.27;;;5.67;;
26594;SDS011;14238;49.496;8.154;2023-04-06T02:49:13;6.70;;;6.10;;
26594;SDS011;14238;49.496;8.154;2023-04-06T02:51:38;6.57;;;5.90;;
26594;SDS011;14238;49.496;8.154;2023-04-06T02:54:04;7.17;;;6.20;;
26594;SDS011;14238;49.496;8.154;2023-04-06T02:56:29;7.17;;;6.57;;
26594;SDS011;14238;49.496;8.154;2023-04-06T02:58:55;8.53;;;5.80;;
26594;SDS011;14238;49.496;8.154;2023-04-06T03:01:20;5.70;;;5.20;;
26594;SDS011;14238;49.496;8.154;2023-04-06T03:03:46;7.20;;;6.50;;
26594;SDS011;14238;49.496;8.154;2023-04-06T03:06:11;6.20;;;5.60;;
26594;SDS011;14238;49.496;8.154;2023-04-06T03:08:37;9.00;;;6.10;;
26594;SDS011;14238;49.496;8.154;2023-04-06T03:11:02;5.60;;;5.10;;
26594;SDS011;14238;49.496;8.154;2023-04-06T03:13:28;6.23;;;5.50;;
26594;SDS011;14238;49.496;8.154;2023-04-06T03:15:54;5.67;;;5.23;;
26594;SDS011;14238;49.496;8.154;2023-04-06T03:18:23;6.60;;;5.97;;
26594;SDS011;14238;49.496;8.154;2023-04-06T03:20:50;6.50;;;6.00;;
26594;SDS011;14238;49.496;8.154;2023-04-06T03:23:16;6.10;;;5.50;;
26594;SDS011;14238;49.496;8.154;2023-04-06T03:25:41;5.87;;;5.30;;
26594;SDS011;14238;49.496;8.154;2023-04-06T03:28:07;6.67;;;6.07;;
26594;SDS011;14238;49.496;8.154;2023-04-06T03:30:33;6.20;;;5.70;;
26594;SDS011;14238;49.496;8.154;2023-04-06T03:32:59;6.53;;;5.63;;
26594;SDS011;14238;49.496;8.154;2023-04-06T03:35:25;7.30;;;6.60;;
26594;SDS011;14238;49.496;8.154;2023-04-06T03:37:50;7.33;;;6.00;;
26594;SDS011;14238;49.496;8.154;2023-04-06T03:40:17;6.77;;;6.07;;
26594;SDS011;14238;49.496;8.154;2023-04-06T03:42:43;5.77;;;5.20;;
26594;SDS011;14238;49.496;8.154;2023-04-06T03:45:08;6.47;;;5.87;;
26594;SDS011;14238;49.496;8.154;2023-04-06T03:47:34;9.13;;;6.53;;
26594;SDS011;14238;49.496;8.154;2023-04-06T03:50:00;6.80;;;6.13;;
26594;SDS011;14238;49.496;8.154;2023-04-06T03:52:25;8.07;;;5.40;;
26594;SDS011;14238;49.496;8.154;2023-04-06T03:54:51;11.93;;;7.10;;
26594;SDS011;14238;49.496;8.154;2023-04-06T03:57:17;8.80;;;6.40;;
26594;SDS011;14238;49.496;8.154;2023-04-06T03:59:42;7.43;;;6.10;;
26594;SDS011;14238;49.496;8.154;2023-04-06T04:02:08;6.90;;;6.30;;
26594;SDS011;14238;49.496;8.154;2023-04-06T04:04:33;8.03;;;5.80;;
26594;SDS011;14238;49.496;8.154;2023-04-06T04:06:59;7.07;;;6.37;;
26594;SDS011;14238;49.496;8.154;2023-04-06T04:09:25;7.83;;;7.00;;
26594;SDS011;14238;49.496;8.154;2023-04-06T04:11:50;16.10;;;12.20;;
26594;SDS011;14238;49.496;8.154;2023-04-06T04:14:16;8.90;;;6.30;;
26594;SDS011;14238;49.496;8.154;2023-04-06T04:16:41;7.17;;;6.10;;
26594;SDS011;14238;49.496;8.154;2023-04-06T04:19:07;7.90;;;7.13;;
26594;SDS011;14238;49.496;8.154;2023-04-06T04:21:33;7.90;;;7.10;;
26594;SDS011;14238;49.496;8.154;2023-04-06T04:23:58;6.97;;;6.27;;
26594;SDS011;14238;49.496;8.154;2023-04-06T04:26:24;6.63;;;6.13;;
26594;SDS011;14238;49.496;8.154;2023-04-06T04:28:50;7.53;;;6.90;;
26594;SDS011;14238;49.496;8.154;2023-04-06T04:31:15;7.07;;;6.37;;
26594;SDS011;14238;49.496;8.154;2023-04-06T04:33:43;6.97;;;6.30;;
26594;SDS011;14238;49.496;8.154;2023-04-06T04:36:08;6.97;;;6.40;;
26594;SDS011;14238;49.496;8.154;2023-04-06T04:38:35;7.73;;;6.97;;
26594;SDS011;14238;49.496;8.154;2023-04-06T04:41:00;7.03;;;5.97;;
26594;SDS011;14238;49.496;8.154;2023-04-06T04:43:26;6.80;;;6.20;;
26594;SDS011;14238;49.496;8.154;2023-04-06T04:45:51;7.53;;;6.80;;
26594;SDS011;14238;49.496;8.154;2023-04-06T04:48:17;8.03;;;6.90;;
26594;SDS011;14238;49.496;8.154;2023-04-06T04:50:42;7.13;;;6.53;;
26594;SDS011;14238;49.496;8.154;2023-04-06T04:53:08;7.23;;;6.33;;
26594;SDS011;14238;49.496;8.154;2023-04-06T04:55:33;7.10;;;6.40;;
26594;SDS011;14238;49.496;8.154;2023-04-06T04:57:59;6.80;;;6.20;;
26594;SDS011;14238;49.496;8.154;2023-04-06T05:00:24;8.60;;;5.70;;
26594;SDS011;14238;49.496;8.154;2023-04-06T05:02:50;6.60;;;6.00;;
26594;SDS011;14238;49.496;8.154;2023-04-06T05:05:16;6.53;;;6.03;;
26594;SDS011;14238;49.496;8.154;2023-04-06T05:07:41;7.50;;;6.90;;
26594;SDS011;14238;49.496;8.154;2023-04-06T05:10:07;8.00;;;5.77;;
26594;SDS011;14238;49.496;8.154;2023-04-06T05:12:33;6.67;;;6.07;;
26594;SDS011;14238;49.496;8.154;2023-04-06T05:15:05;6.97;;;6.33;;
26594;SDS011;14238;49.496;8.154;2023-04-06T05:17:31;7.23;;;6.53;;
26594;SDS011;14238;49.496;8.154;2023-04-06T05:19:56;6.67;;;6.07;;
26594;SDS011;14238;49.496;8.154;2023-04-06T05:22:22;6.97;;;6.30;;
26594;SDS011;14238;49.496;8.154;2023-04-06T05:24:47;6.87;;;6.27;;
26594;SDS011;14238;49.496;8.154;2023-04-06T05:27:13;7.13;;;5.87;;
26594;SDS011;14238;49.496;8.154;2023-04-06T05:29:38;8.33;;;5.67;;
26594;SDS011;14238;49.496;8.154;2023-04-06T05:32:04;6.90;;;6.30;;
26594;SDS011;14238;49.496;8.154;2023-04-06T05:34:31;7.17;;;6.47;;
26594;SDS011;14238;49.496;8.154;2023-04-06T05:36:56;6.60;;;5.30;;
26594;SDS011;14238;49.496;8.154;2023-04-06T05:39:22;7.13;;;6.43;;
26594;SDS011;14238;49.496;8.154;2023-04-06T05:41:48;6.00;;;5.50;;
26594;SDS011;14238;49.496;8.154;2023-04-06T05:44:14;6.53;;;5.93;;
26594;SDS011;14238;49.496;8.154;2023-04-06T05:46:39;6.07;;;5.57;;
26594;SDS011;14238;49.496;8.154;2023-04-06T05:49:05;6.20;;;5.80;;
26594;SDS011;14238;49.496;8.154;2023-04-06T05:51:30;7.63;;;6.63;;
26594;SDS011;14238;49.496;8.154;2023-04-06T05:53:56;6.63;;;5.73;;
26594;SDS011;14238;49.496;8.154;2023-04-06T05:56:22;6.20;;;5.70;;
26594;SDS011;14238;49.496;8.154;2023-04-06T05:58:48;7.10;;;6.40;;
26594;SDS011;14238;49.496;8.154;2023-04-06T06:01:14;7.27;;;6.60;;
26594;SDS011;14238;49.496;8.154;2023-04-06T06:03:40;7.50;;;6.70;;
26594;SDS011;14238;49.496;8.154;2023-04-06T06:06:06;7.17;;;6.53;;
26594;SDS011;14238;49.496;8.154;2023-04-06T06:08:31;7.70;;;7.00;;
26594;SDS011;14238;49.496;8.154;2023-04-06T06:10:57;8.10;;;7.30;;
26594;SDS011;14238;49.496;8.154;2023-04-06T06:13:23;7.50;;;6.80;;
26594;SDS011;14238;49.496;8.154;2023-04-06T06:15:49;7.13;;;6.53;;
26594;SDS011;14238;49.496;8.154;2023-04-06T06:18:15;7.53;;;6.80;;
26594;SDS011;14238;49.496;8.154;2023-04-06T06:20:40;6.80;;;6.20;;
26594;SDS011;14238;49.496;8.154;2023-04-06T06:23:06;7.30;;;6.70;;
26594;SDS011;14238;49.496;8.154;2023-04-06T06:25:32;7.43;;;6.83;;
26594;SDS011;14238;49.496;8.154;2023-04-06T06:27:58;10.83;;;9.73;;
26594;SDS011;14238;49.496;8.154;2023-04-06T06:30:24;11.23;;;10.13;;
26594;SDS011;14238;49.496;8.154;2023-04-06T06:32:51;14.40;;;12.00;;
26594;SDS011;14238;49.496;8.154;2023-04-06T06:35:16;11.23;;;10.13;;
26594;SDS011;14238;49.496;8.154;2023-04-06T06:37:42;11.40;;;10.40;;
26594;SDS011;14238;49.496;8.154;2023-04-06T06:40:10;11.80;;;10.23;;
26594;SDS011;14238;49.496;8.154;2023-04-06T06:42:38;10.27;;;9.40;;
26594;SDS011;14238;49.496;8.154;2023-04-06T06:45:04;9.57;;;8.60;;
26594;SDS011;14238;49.496;8.154;2023-04-06T06:47:30;10.93;;;9.83;;
26594;SDS011;14238;49.496;8.154;2023-04-06T06:49:56;10.67;;;9.77;;
26594;SDS011;14238;49.496;8.154;2023-04-06T06:52:21;9.13;;;8.33;;
26594;SDS011;14238;49.496;8.154;2023-04-06T06:54:48;8.70;;;8.00;;
26594;SDS011;14238;49.496;8.154;2023-04-06T06:57:14;8.70;;;7.90;;
26594;SDS011;14238;49.496;8.154;2023-04-06T06:59:40;8.37;;;7.70;;
26594;SDS011;14238;49.496;8.154;2023-04-06T07:02:05;7.73;;;7.10;;
26594;SDS011;14238;49.496;8.154;2023-04-06T07:04:31;8.73;;;7.83;;
26594;SDS011;14238;49.496;8.154;2023-04-06T07:06:57;9.33;;;8.50;;
26594;SDS011;14238;49.496;8.154;2023-04-06T07:09:23;8.37;;;7.67;;
26594;SDS011;14238;49.496;8.154;2023-04-06T07:11:48;9.37;;;8.47;;
26594;SDS011;14238;49.496;8.154;2023-04-06T07:14:14;8.70;;;8.00;;
26594;SDS011;14238;49.496;8.154;2023-04-06T07:16:40;9.00;;;8.20;;
26594;SDS011;14238;49.496;8.154;2023-04-06T07:19:06;9.70;;;8.33;;
26594;SDS011;14238;49.496;8.154;2023-04-06T07:21:32;8.80;;;8.00;;
26594;SDS011;14238;49.496;8.154;2023-04-06T07:23:57;9.20;;;8.40;;
26594;SDS011;14238;49.496;8.154;2023-04-06T07:26:23;9.10;;;8.23;;
26594;SDS011;14238;49.496;8.154;2023-04-06T07:28:48;9.70;;;8.80;;
26594;SDS011;14238;49.496;8.154;2023-04-06T07:31:14;9.87;;;8.83;;
26594;SDS011;14238;49.496;8.154;2023-04-06T07:33:40;9.73;;;8.57;;
26594;SDS011;14238;49.496;8.154;2023-04-06T07:36:05;8.90;;;8.20;;
26594;SDS011;14238;49.496;8.154;2023-04-06T07:38:31;9.63;;;8.80;;
26594;SDS011;14238;49.496;8.154;2023-04-06T07:40:56;11.23;;;10.10;;
26594;SDS011;14238;49.496;8.154;2023-04-06T07:43:22;10.40;;;9.47;;
26594;SDS011;14238;49.496;8.154;2023-04-06T07:45:47;11.70;;;10.50;;
26594;SDS011;14238;49.496;8.154;2023-04-06T07:48:13;10.13;;;9.10;;
26594;SDS011;14238;49.496;8.154;2023-04-06T07:50:39;10.10;;;9.20;;
26594;SDS011;14238;49.496;8.154;2023-04-06T07:53:04;10.80;;;9.80;;
26594;SDS011;14238;49.496;8.154;2023-04-06T07:55:30;10.83;;;9.83;;
26594;SDS011;14238;49.496;8.154;2023-04-06T07:57:55;10.87;;;9.77;;
26594;SDS011;14238;49.496;8.154;2023-04-06T08:00:21;11.20;;;9.73;;
26594;SDS011;14238;49.496;8.154;2023-04-06T08:02:47;12.60;;;9.53;;
26594;SDS011;14238;49.496;8.154;2023-04-06T08:05:12;10.83;;;9.80;;
26594;SDS011;14238;49.496;8.154;2023-04-06T08:07:38;9.77;;;8.90;;
26594;SDS011;14238;49.496;8.154;2023-04-06T08:10:03;14.60;;;10.53;;
26594;SDS011;14238;49.496;8.154;2023-04-06T08:12:29;11.27;;;10.20;;
26594;SDS011;14238;49.496;8.154;2023-04-06T08:14:55;11.27;;;10.10;;
26594;SDS011;14238;49.496;8.154;2023-04-06T08:17:21;12.27;;;10.20;;
26594;SDS011;14238;49.496;8.154;2023-04-06T08:19:47;11.50;;;10.40;;
26594;SDS011;14238;49.496;8.154;2023-04-06T08:22:13;12.73;;;10.17;;
26594;SDS011;14238;49.496;8.154;2023-04-06T08:24:38;10.90;;;10.00;;
26594;SDS011;14238;49.496;8.154;2023-04-06T08:27:04;11.63;;;10.53;;
26594;SDS011;14238;49.496;8.154;2023-04-06T08:29:30;11.30;;;10.07;;
26594;SDS011;14238;49.496;8.154;2023-04-06T08:31:55;13.73;;;11.03;;
26594;SDS011;14238;49.496;8.154;2023-04-06T08:34:21;11.90;;;10.70;;
26594;SDS011;14238;49.496;8.154;2023-04-06T08:36:47;11.47;;;10.37;;
26594;SDS011;14238;49.496;8.154;2023-04-06T08:39:13;12.80;;;11.63;;
26594;SDS011;14238;49.496;8.154;2023-04-06T08:41:41;12.60;;;11.30;;
26594;SDS011;14238;49.496;8.154;2023-04-06T08:44:07;11.80;;;10.60;;
26594;SDS011;14238;49.496;8.154;2023-04-06T08:46:33;12.20;;;11.00;;
26594;SDS011;14238;49.496;8.154;2023-04-06T08:49:00;11.70;;;10.50;;
26594;SDS011;14238;49.496;8.154;2023-04-06T08:51:27;11.57;;;10.50;;
26594;SDS011;14238;49.496;8.154;2023-04-06T08:53:54;10.30;;;9.50;;
26594;SDS011;14238;49.496;8.154;2023-04-06T08:56:24;13.53;;;10.47;;
26594;SDS011;14238;49.496;8.154;2023-04-06T08:58:51;11.57;;;10.37;;
26594;SDS011;14238;49.496;8.154;2023-04-06T09:01:20;10.73;;;9.73;;
26594;SDS011;14238;49.496;8.154;2023-04-06T09:03:50;11.00;;;10.00;;
26594;SDS011;14238;49.496;8.154;2023-04-06T09:06:20;11.50;;;10.50;;
26594;SDS011;14238;49.496;8.154;2023-04-06T09:08:46;11.80;;;10.80;;
26594;SDS011;14238;49.496;8.154;2023-04-06T09:11:11;10.83;;;9.70;;
26594;SDS011;14238;49.496;8.154;2023-04-06T09:16:15;14.00;;;11.73;;
26594;SDS011;14238;49.496;8.154;2023-04-06T09:18:42;11.50;;;10.40;;
26594;SDS011;14238;49.496;8.154;2023-04-06T09:21:08;12.47;;;11.17;;
26594;SDS011;14238;49.496;8.154;2023-04-06T09:23:34;13.43;;;12.13;;
26594;SDS011;14238;49.496;8.154;2023-04-06T09:26:07;11.50;;;10.53;;
26594;SDS011;14238;49.496;8.154;2023-04-06T09:31:13;12.00;;;10.90;;
26594;SDS011;14238;49.496;8.154;2023-04-06T09:33:40;12.60;;;11.50;;
26594;SDS011;14238;49.496;8.154;2023-04-06T09:36:07;11.03;;;10.03;;
26594;SDS011;14238;49.496;8.154;2023-04-06T09:38:37;13.27;;;12.07;;
26594;SDS011;14238;49.496;8.154;2023-04-06T09:41:03;12.30;;;11.20;;
26594;SDS011;14238;49.496;8.154;2023-04-06T09:43:29;13.07;;;11.97;;
26594;SDS011;14238;49.496;8.154;2023-04-06T09:45:55;13.43;;;11.90;;
26594;SDS011;14238;49.496;8.154;2023-04-06T09:48:21;12.07;;;10.97;;
26594;SDS011;14238;49.496;8.154;2023-04-06T09:50:49;11.87;;;10.87;;
26594;SDS011;14238;49.496;8.154;2023-04-06T09:53:20;12.00;;;11.10;;
26594;SDS011;14238;49.496;8.154;2023-04-06T09:55:51;11.63;;;10.63;;
26594;SDS011;14238;49.496;8.154;2023-04-06T09:58:22;11.80;;;10.60;;
26594;SDS011;14238;49.496;8.154;2023-04-06T10:00:55;12.87;;;11.77;;
26594;SDS011;14238;49.496;8.154;2023-04-06T10:03:52;13.00;;;11.60;;
26594;SDS011;14238;49.496;8.154;2023-04-06T10:06:35;12.27;;;10.93;;
26594;SDS011;14238;49.496;8.154;2023-04-06T10:09:02;13.53;;;12.30;;
26594;SDS011;14238;49.496;8.154;2023-04-06T10:11:29;13.03;;;11.60;;
26594;SDS011;14238;49.496;8.154;2023-04-06T10:13:55;13.00;;;11.90;;
26594;SDS011;14238;49.496;8.154;2023-04-06T10:16:22;12.50;;;10.80;;
26594;SDS011;14238;49.496;8.154;2023-04-06T10:18:50;12.80;;;11.60;;
26594;SDS011;14238;49.496;8.154;2023-04-06T10:21:21;11.83;;;10.17;;
26594;SDS011;14238;49.496;8.154;2023-04-06T10:23:52;11.23;;;10.30;;
26594;SDS011;14238;49.496;8.154;2023-04-06T10:26:22;11.40;;;10.47;;
26594;SDS011;14238;49.496;8.154;2023-04-06T10:28:48;11.30;;;10.20;;
26594;SDS011;14238;49.496;8.154;2023-04-06T10:31:15;10.40;;;9.50;;
26594;SDS011;14238;49.496;8.154;2023-04-06T10:33:56;11.90;;;10.87;;
26594;SDS011;14238;49.496;8.154;2023-04-06T10:36:23;12.73;;;10.97;;
26594;SDS011;14238;49.496;8.154;2023-04-06T10:38:55;11.77;;;10.67;;
26594;SDS011;14238;49.496;8.154;2023-04-06T10:41:24;12.00;;;10.90;;
26594;SDS011;14238;49.496;8.154;2023-04-06T10:43:57;10.70;;;9.80;;
26594;SDS011;14238;49.496;8.154;2023-04-06T10:46:26;11.60;;;10.60;;
26594;SDS011;14238;49.496;8.154;2023-04-06T10:48:53;10.93;;;9.93;;
26594;SDS011;14238;49.496;8.154;2023-04-06T10:51:19;10.30;;;9.40;;
26594;SDS011;14238;49.496;8.154;2023-04-06T10:53:52;11.17;;;10.10;;
26594;SDS011;14238;49.496;8.154;2023-04-06T10:56:21;9.50;;;8.70;;
26594;SDS011;14238;49.496;8.154;2023-04-06T10:58:48;10.10;;;9.30;;
26594;SDS011;14238;49.496;8.154;2023-04-06T11:01:18;9.30;;;8.50;;
26594;SDS011;14238;49.496;8.154;2023-04-06T11:03:45;10.80;;;9.80;;
26594;SDS011;14238;49.496;8.154;2023-04-06T11:06:21;9.60;;;8.80;;
26594;SDS011;14238;49.496;8.154;2023-04-06T11:08:49;9.73;;;8.80;;
26594;SDS011;14238;49.496;8.154;2023-04-06T11:11:17;9.67;;;8.87;;
26594;SDS011;14238;49.496;8.154;2023-04-06T11:13:44;10.07;;;9.03;;
26594;SDS011;14238;49.496;8.154;2023-04-06T11:16:21;8.40;;;7.60;;
26594;SDS011;14238;49.496;8.154;2023-04-06T11:18:54;9.23;;;8.33;;
26594;SDS011;14238;49.496;8.154;2023-04-06T11:21:37;8.73;;;8.03;;
26594;SDS011;14238;49.496;8.154;2023-04-06T11:26:49;7.60;;;7.00;;
26594;SDS011;14238;49.496;8.154;2023-04-06T11:29:38;8.70;;;7.90;;
26594;SDS011;14238;49.496;8.154;2023-04-06T11:32:04;8.70;;;8.03;;
26594;SDS011;14238;49.496;8.154;2023-04-06T11:34:32;9.30;;;8.37;;
26594;SDS011;14238;49.496;8.154;2023-04-06T11:37:03;8.23;;;7.53;;
26594;SDS011;14238;49.496;8.154;2023-04-06T11:39:37;7.97;;;7.20;;
26594;SDS011;14238;49.496;8.154;2023-04-06T11:42:20;7.30;;;6.80;;
26594;SDS011;14238;49.496;8.154;2023-04-06T11:44:49;8.67;;;7.97;;
26594;SDS011;14238;49.496;8.154;2023-04-06T11:47:16;8.00;;;7.30;;
26594;SDS011;14238;49.496;8.154;2023-04-06T11:49:42;7.80;;;7.20;;
26594;SDS011;14238;49.496;8.154;2023-04-06T11:52:25;9.33;;;7.40;;
26594;SDS011;14238;49.496;8.154;2023-04-06T11:54:53;7.73;;;7.10;;
26594;SDS011;14238;49.496;8.154;2023-04-06T11:57:22;7.70;;;7.10;;
26594;SDS011;14238;49.496;8.154;2023-04-06T11:59:50;8.60;;;7.73;;
26594;SDS011;14238;49.496;8.154;2023-04-06T12:02:17;8.37;;;7.67;;
26594;SDS011;14238;49.496;8.154;2023-04-06T12:04:43;8.30;;;7.60;;
26594;SDS011;14238;49.496;8.154;2023-04-06T12:07:09;8.67;;;8.00;;
26594;SDS011;14238;49.496;8.154;2023-04-06T12:09:35;8.70;;;7.80;;
26594;SDS011;14238;49.496;8.154;2023-04-06T12:12:01;8.33;;;7.63;;
26594;SDS011;14238;49.496;8.154;2023-04-06T12:14:27;10.37;;;9.50;;
26594;SDS011;14238;49.496;8.154;2023-04-06T12:16:55;8.73;;;7.83;;
26594;SDS011;14238;49.496;8.154;2023-04-06T12:19:21;8.50;;;7.80;;
26594;SDS011;14238;49.496;8.154;2023-04-06T12:21:50;8.83;;;8.03;;
26594;SDS011;14238;49.496;8.154;2023-04-06T12:24:16;8.70;;;7.90;;
26594;SDS011;14238;49.496;8.154;2023-04-06T12:26:42;8.37;;;7.67;;
26594;SDS011;14238;49.496;8.154;2023-04-06T12:29:08;8.83;;;8.03;;
26594;SDS011;14238;49.496;8.154;2023-04-06T12:31:37;8.27;;;7.57;;
26594;SDS011;14238;49.496;8.154;2023-04-06T12:34:09;7.90;;;7.10;;
26594;SDS011;14238;49.496;8.154;2023-04-06T12:36:36;7.13;;;6.53;;
26594;SDS011;14238;49.496;8.154;2023-04-06T12:39:02;6.80;;;6.30;;
26594;SDS011;14238;49.496;8.154;2023-04-06T12:41:28;7.17;;;6.57;;
26594;SDS011;14238;49.496;8.154;2023-04-06T12:43:54;7.03;;;6.43;;
26594;SDS011;14238;49.496;8.154;2023-04-06T12:46:20;7.07;;;6.37;;
26594;SDS011;14238;49.496;8.154;2023-04-06T12:48:45;6.73;;;6.00;;
26594;SDS011;14238;49.496;8.154;2023-04-06T12:51:11;6.43;;;5.93;;
26594;SDS011;14238;49.496;8.154;2023-04-06T12:53:37;7.17;;;6.57;;
26594;SDS011;14238;49.496;8.154;2023-04-06T12:56:09;7.37;;;6.73;;
26594;SDS011;14238;49.496;8.154;2023-04-06T12:58:37;6.70;;;6.20;;
26594;SDS011;14238;49.496;8.154;2023-04-06T13:01:05;6.70;;;6.20;;
26594;SDS011;14238;49.496;8.154;2023-04-06T13:03:31;6.17;;;5.67;;
26594;SDS011;14238;49.496;8.154;2023-04-06T13:05:58;7.00;;;6.30;;
26594;SDS011;14238;49.496;8.154;2023-04-06T13:08:25;7.00;;;6.37;;
26594;SDS011;14238;49.496;8.154;2023-04-06T13:10:52;6.90;;;6.20;;
26594;SDS011;14238;49.496;8.154;2023-04-06T13:13:21;7.10;;;6.40;;
26594;SDS011;14238;49.496;8.154;2023-04-06T13:15:48;6.67;;;6.17;;
26594;SDS011;14238;49.496;8.154;2023-04-06T13:18:13;7.00;;;6.40;;
26594;SDS011;14238;49.496;8.154;2023-04-06T13:20:39;6.90;;;6.30;;
26594;SDS011;14238;49.496;8.154;2023-04-06T13:23:05;7.33;;;6.63;;
26594;SDS011;14238;49.496;8.154;2023-04-06T13:25:30;6.77;;;6.07;;
26594;SDS011;14238;49.496;8.154;2023-04-06T13:27:57;6.60;;;6.00;;
26594;SDS011;14238;49.496;8.154;2023-04-06T13:30:23;8.17;;;6.63;;
26594;SDS011;14238;49.496;8.154;2023-04-06T13:32:49;5.83;;;5.40;;
26594;SDS011;14238;49.496;8.154;2023-04-06T13:35:14;6.90;;;6.30;;
26594;SDS011;14238;49.496;8.154;2023-04-06T13:37:41;7.80;;;7.10;;
26594;SDS011;14238;49.496;8.154;2023-04-06T13:40:07;7.13;;;6.53;;
26594;SDS011;14238;49.496;8.154;2023-04-06T13:42:33;7.07;;;6.43;;
26594;SDS011;14238;49.496;8.154;2023-04-06T13:45:00;7.80;;;7.10;;
26594;SDS011;14238;49.496;8.154;2023-04-06T13:47:26;7.30;;;6.67;;
26594;SDS011;14238;49.496;8.154;2023-04-06T13:49:52;8.33;;;7.53;;
26594;SDS011;14238;49.496;8.154;2023-04-06T13:52:18;6.87;;;6.30;;
26594;SDS011;14238;49.496;8.154;2023-04-06T13:54:44;7.03;;;6.33;;
26594;SDS011;14238;49.496;8.154;2023-04-06T13:57:10;8.10;;;7.30;;
26594;SDS011;14238;49.496;8.154;2023-04-06T13:59:37;6.57;;;5.97;;
26594;SDS011;14238;49.496;8.154;2023-04-06T14:02:03;6.30;;;5.30;;
26594;SDS011;14238;49.496;8.154;2023-04-06T14:04:31;6.30;;;5.80;;
26594;SDS011;14238;49.496;8.154;2023-04-06T14:06:57;5.90;;;5.40;;
26594;SDS011;14238;49.496;8.154;2023-04-06T14:09:24;5.30;;;4.80;;
26594;SDS011;14238;49.496;8.154;2023-04-06T14:11:50;6.47;;;5.40;;
26594;SDS011;14238;49.496;8.154;2023-04-06T14:14:16;6.27;;;5.77;;
26594;SDS011;14238;49.496;8.154;2023-04-06T14:16:42;6.20;;;5.57;;
26594;SDS011;14238;49.496;8.154;2023-04-06T14:19:11;5.47;;;4.97;;
26594;SDS011;14238;49.496;8.154;2023-04-06T14:21:41;6.07;;;5.57;;
26594;SDS011;14238;49.496;8.154;2023-04-06T14:24:07;4.30;;;4.00;;
26594;SDS011;14238;49.496;8.154;2023-04-06T14:26:34;4.30;;;4.00;;
26594;SDS011;14238;49.496;8.154;2023-04-06T14:29:01;5.73;;;5.27;;
26594;SDS011;14238;49.496;8.154;2023-04-06T14:31:27;5.20;;;4.80;;
26594;SDS011;14238;49.496;8.154;2023-04-06T14:33:53;4.33;;;4.03;;
26594;SDS011;14238;49.496;8.154;2023-04-06T14:36:18;4.93;;;4.30;;
26594;SDS011;14238;49.496;8.154;2023-04-06T14:38:44;5.50;;;4.50;;
26594;SDS011;14238;49.496;8.154;2023-04-06T14:41:15;5.20;;;4.60;;
26594;SDS011;14238;49.496;8.154;2023-04-06T14:43:42;5.03;;;4.63;;
26594;SDS011;14238;49.496;8.154;2023-04-06T14:46:07;6.13;;;5.60;;
26594;SDS011;14238;49.496;8.154;2023-04-06T14:48:33;7.03;;;6.33;;